
Distance (Route):
Temperature : -23.4°C
Humidity : 0%
Pressure : 0hPa| Receiver | Frames | First received | Last received |
|---|---|---|---|
| KE7DJD | 231 | 2026-09-01 23:48:13 | 2026-09-02 01:11:27 |
| Receiver | Date | Latitude | Longitude | Direction | Speed | Altitude | Climb | Temperature | Humidity | Pressure | Voltage | Killtimer | Uptime | BKT | XDATA |
|---|---|---|---|---|---|---|---|---|---|---|---|---|---|---|---|
| KE7DJD | 2026-09-02 01:11:27 | 41.44830 | -114.93886 | 46° | 84km/h | 8469m | -11.3m/s | -23.4°C | 0% | 0hPa | 0V | 00:00:00 | 00:00:00 | 00:00:00 | |
| KE7DJD | 2026-09-02 01:11:06 | 41.44510 | -114.94312 | 47° | 89km/h | 8702m | -11.2m/s | -25.4°C | 0% | 0hPa | 0V | 00:00:00 | 00:00:00 | 00:00:00 | |
| KE7DJD | 2026-09-02 01:10:45 | 41.44199 | -114.94772 | 49° | 89km/h | 8955m | -12.4m/s | -27.7°C | 0% | 0hPa | 0V | 00:00:00 | 00:00:00 | 00:00:00 | |
| KE7DJD | 2026-09-02 01:10:25 | 41.43882 | -114.95242 | 45° | 89km/h | 9210m | -12.5m/s | -30.0°C | 0% | 0hPa | 0V | 00:00:00 | 00:00:00 | 00:00:00 | |
| KE7DJD | 2026-09-02 01:10:04 | 41.43534 | -114.95686 | 46° | 95km/h | 9453m | -12.7m/s | -32.1°C | 0% | 0hPa | 0V | 00:00:00 | 00:00:00 | 00:00:00 | |
| KE7DJD | 2026-09-02 01:09:43 | 41.43172 | -114.96211 | 52° | 104km/h | 9714m | -12.8m/s | -33.9°C | 0% | 0hPa | 0V | 00:00:00 | 00:00:00 | 00:00:00 | |
| KE7DJD | 2026-09-02 01:09:23 | 41.42844 | -114.96744 | 53° | 104km/h | 9970m | -13.4m/s | -35.5°C | 0% | 0hPa | 0V | 00:00:00 | 00:00:00 | 00:00:00 | |
| KE7DJD | 2026-09-02 01:09:03 | 41.42500 | -114.97337 | 51° | 110km/h | 10246m | -12.8m/s | -37.7°C | 0% | 0hPa | 0V | 00:00:00 | 00:00:00 | 00:00:00 | |
| KE7DJD | 2026-09-02 01:08:42 | 41.42145 | -114.97968 | 56° | 110km/h | 10519m | -12.2m/s | -40.0°C | 0% | 0hPa | 0V | 00:00:00 | 00:00:00 | 00:00:00 | |
| KE7DJD | 2026-09-02 01:08:22 | 41.41817 | -114.98602 | 58° | 111km/h | 10786m | -13.5m/s | -42.2°C | 0% | 0hPa | 0V | 00:00:00 | 00:00:00 | 00:00:00 | |
| KE7DJD | 2026-09-02 01:08:01 | 41.41527 | -114.99224 | 57° | 110km/h | 11049m | -13.7m/s | -44.5°C | 0% | 0hPa | 0V | 00:00:00 | 00:00:00 | 00:00:00 | |
| KE7DJD | 2026-09-02 01:07:41 | 41.41212 | -114.99898 | 59° | 113km/h | 11338m | -13.4m/s | -46.4°C | 0% | 0hPa | 0V | 00:00:00 | 00:00:00 | 00:00:00 | |
| KE7DJD | 2026-09-02 01:07:20 | 41.40878 | -115.00566 | 58° | 119km/h | 11610m | -13.8m/s | -47.1°C | 0% | 0hPa | 0V | 00:00:00 | 00:00:00 | 00:00:00 | |
| KE7DJD | 2026-09-02 01:07:00 | 41.40517 | -115.01292 | 61° | 120km/h | 11910m | -13.7m/s | -47.0°C | 0% | 0hPa | 0V | 00:00:00 | 00:00:00 | 00:00:00 | |
| KE7DJD | 2026-09-02 01:06:19 | 41.39841 | -115.02624 | 57° | 117km/h | 12496m | -13.2m/s | -46.9°C | 0% | 0hPa | 0V | 00:00:00 | 00:00:00 | 00:00:00 | |
| KE7DJD | 2026-09-02 01:05:58 | 41.39525 | -115.03275 | 54° | 113km/h | 12767m | -11.9m/s | -46.4°C | 0% | 0hPa | 0V | 00:00:00 | 00:00:00 | 00:00:00 | |
| KE7DJD | 2026-09-02 01:05:38 | 41.39170 | -115.03947 | 58° | 113km/h | 13054m | -14.3m/s | -46.5°C | 0% | 0hPa | 0V | 00:00:00 | 00:00:00 | 00:00:00 | |
| KE7DJD | 2026-09-02 01:05:17 | 41.38806 | -115.04563 | 51° | 108km/h | 13347m | -14.1m/s | -44.8°C | 0% | 0hPa | 0V | 00:00:00 | 00:00:00 | 00:00:00 | |
| KE7DJD | 2026-09-02 01:04:57 | 41.38443 | -115.05122 | 51° | 117km/h | 13623m | -13.4m/s | -45.9°C | 0% | 0hPa | 0V | 00:00:00 | 00:00:00 | 00:00:00 | |
| KE7DJD | 2026-09-02 01:04:36 | 41.38087 | -115.05641 | 46° | 88km/h | 13937m | -14.8m/s | -45.8°C | 0% | 0hPa | 0V | 00:00:00 | 00:00:00 | 00:00:00 | |
| KE7DJD | 2026-09-02 01:04:15 | 41.37752 | -115.06087 | 44° | 91km/h | 14248m | -15.5m/s | -46.5°C | 0% | 0hPa | 0V | 00:00:00 | 00:00:00 | 00:00:00 | |
| KE7DJD | 2026-09-02 01:03:55 | 41.37369 | -115.06514 | 39° | 91km/h | 14582m | -17.2m/s | -47.3°C | 0% | 0hPa | 0V | 00:00:00 | 00:00:00 | 00:00:00 | |
| KE7DJD | 2026-09-02 01:03:34 | 41.36949 | -115.06934 | 44° | 108km/h | 14920m | -15.9m/s | -48.8°C | 0% | 0hPa | 0V | 00:00:00 | 00:00:00 | 00:00:00 | |
| KE7DJD | 2026-09-02 01:03:12 | 41.36598 | -115.07396 | 37° | 88km/h | 15252m | -15.3m/s | -49.4°C | 0% | 0hPa | 0V | 00:00:00 | 00:00:00 | 00:00:00 | |
| KE7DJD | 2026-09-02 01:02:51 | 41.36205 | -115.07845 | 50° | 97km/h | 15616m | -17.8m/s | -50.8°C | 0% | 0hPa | 0V | 00:00:00 | 00:00:00 | 00:00:00 | |
| KE7DJD | 2026-09-02 01:02:28 | 41.35889 | -115.08352 | 50° | 78km/h | 15997m | -14.8m/s | -50.5°C | 0% | 0hPa | 0V | 00:00:00 | 00:00:00 | 00:00:00 | |
| KE7DJD | 2026-09-02 01:02:08 | 41.35651 | -115.08699 | 41° | 57km/h | 16365m | -19.5m/s | -49.5°C | 0% | 0hPa | 0V | 00:00:00 | 00:00:00 | 00:00:00 | |
| KE7DJD | 2026-09-02 01:01:47 | 41.35361 | -115.08924 | 28° | 80km/h | 16708m | -17.9m/s | -51.2°C | 0% | 0hPa | 0V | 00:00:00 | 00:00:00 | 00:00:00 | |
| KE7DJD | 2026-09-02 01:01:07 | 41.34698 | -115.09319 | 30° | 69km/h | 17510m | -19.8m/s | -51.0°C | 0% | 0hPa | 0V | 00:00:00 | 00:00:00 | 00:00:00 | |
| KE7DJD | 2026-09-02 01:00:45 | 41.34430 | -115.09563 | 45° | 51km/h | 17949m | -20.1m/s | -52.2°C | 0% | 0hPa | 0V | 00:00:00 | 00:00:00 | 00:00:00 | |
| KE7DJD | 2026-09-02 01:00:25 | 41.34274 | -115.09766 | 40° | 31km/h | 18353m | -18.6m/s | -52.8°C | 0% | 0hPa | 0V | 00:00:00 | 00:00:00 | 00:00:00 | |
| KE7DJD | 2026-09-02 01:00:03 | 41.34130 | -115.09944 | 46° | 49km/h | 18728m | -20.2m/s | -50.4°C | 0% | 0hPa | 0V | 00:00:00 | 00:00:00 | 00:00:00 | |
| KE7DJD | 2026-09-02 00:59:43 | 41.34026 | -115.10171 | 62° | 27km/h | 19113m | -19.8m/s | -47.6°C | 0% | 0hPa | 0V | 00:00:00 | 00:00:00 | 00:00:00 | |
| KE7DJD | 2026-09-02 00:59:23 | 41.33958 | -115.10327 | 42° | 27km/h | 19502m | -19.3m/s | -49.2°C | 0% | 0hPa | 0V | 00:00:00 | 00:00:00 | 00:00:00 | |
| KE7DJD | 2026-09-02 00:58:42 | 41.33671 | -115.10497 | 66° | 42km/h | 20399m | -21.2m/s | -50.8°C | 0% | 0hPa | 0V | 00:00:00 | 00:00:00 | 00:00:00 | |
| KE7DJD | 2026-09-02 00:58:21 | 41.33651 | -115.10599 | 10° | 9km/h | 20819m | -20.9m/s | -48.4°C | 0% | 0hPa | 0V | 00:00:00 | 00:00:00 | 00:00:00 | |
| KE7DJD | 2026-09-02 00:57:59 | 41.33589 | -115.10595 | 44° | 20km/h | 21286m | -20.5m/s | -49.3°C | 0% | 0hPa | 0V | 00:00:00 | 00:00:00 | 00:00:00 | |
| KE7DJD | 2026-09-02 00:57:38 | 41.33572 | -115.10720 | 87° | 16km/h | 21779m | -18.7m/s | -47.3°C | 0% | 0hPa | 0V | 00:00:00 | 00:00:00 | 00:00:00 | |
| KE7DJD | 2026-09-02 00:57:18 | 41.33542 | -115.10708 | 326° | 18km/h | 22259m | -19.9m/s | -48.1°C | 0% | 0hPa | 0V | 00:00:00 | 00:00:00 | 00:00:00 | |
| KE7DJD | 2026-09-02 00:56:57 | 41.33528 | -115.10651 | 301° | 15km/h | 22748m | -28.4m/s | -48.2°C | 0% | 0hPa | 0V | 00:00:00 | 00:00:00 | 00:00:00 | |
| KE7DJD | 2026-09-02 00:56:36 | 41.33497 | -115.10603 | 63° | 2km/h | 23290m | -27.1m/s | -47.7°C | 0% | 0hPa | 0V | 00:00:00 | 00:00:00 | 00:00:00 | |
| KE7DJD | 2026-09-02 00:56:16 | 41.33510 | -115.10603 | 201° | 15km/h | 23796m | -23.4m/s | -46.4°C | 0% | 0hPa | 0V | 00:00:00 | 00:00:00 | 00:00:00 | |
| KE7DJD | 2026-09-02 00:55:56 | 41.33562 | -115.10535 | 211° | 20km/h | 24273m | -20.6m/s | -45.7°C | 0% | 0hPa | 0V | 00:00:00 | 00:00:00 | 00:00:00 | |
| KE7DJD | 2026-09-02 00:55:35 | 41.33594 | -115.10388 | 246° | 15km/h | 24803m | -26.3m/s | -44.5°C | 0% | 0hPa | 0V | 00:00:00 | 00:00:00 | 00:00:00 | |
| KE7DJD | 2026-09-02 00:55:13 | 41.33662 | -115.10233 | 250° | 35km/h | 25344m | -25.0m/s | -44.0°C | 0% | 0hPa | 0V | 00:00:00 | 00:00:00 | 00:00:00 | |
| KE7DJD | 2026-09-02 00:54:54 | 41.33663 | -115.10108 | 0° | 0km/h | 25851m | -25.4m/s | -44.0°C | 0% | 0hPa | 0V | 00:00:00 | 00:00:00 | 00:00:00 | |
| KE7DJD | 2026-09-02 00:54:32 | 41.33676 | -115.10076 | 241° | 13km/h | 26427m | -30.2m/s | -41.4°C | 0% | 0hPa | 0V | 00:00:00 | 00:00:00 | 00:00:00 | |
| KE7DJD | 2026-09-02 00:54:12 | 41.33694 | -115.10014 | 232° | 13km/h | 27155m | -37.4m/s | -39.6°C | 0% | 0hPa | 0V | 00:00:00 | 00:00:00 | 00:00:00 | |
| KE7DJD | 2026-09-02 00:53:51 | 41.33719 | -115.09908 | 275° | 7km/h | 27788m | -31.8m/s | -40.6°C | 0% | 0hPa | 0V | 00:00:00 | 00:00:00 | 00:00:00 | |
| KE7DJD | 2026-09-02 00:53:31 | 41.33709 | -115.09898 | 131° | 5km/h | 28453m | -30.2m/s | -39.5°C | 0% | 0hPa | 0V | 00:00:00 | 00:00:00 | 00:00:00 | |
| KE7DJD | 2026-09-02 00:53:11 | 41.33684 | -115.09878 | 210° | 13km/h | 29061m | -30.5m/s | -38.5°C | 0% | 0hPa | 0V | 00:00:00 | 00:00:00 | 00:00:00 | |
| KE7DJD | 2026-09-02 00:52:50 | 41.33683 | -115.09815 | 12° | 13km/h | 29753m | -36.9m/s | -37.9°C | 0% | 0hPa | 0V | 00:00:00 | 00:00:00 | 00:00:00 | |
| KE7DJD | 2026-09-02 00:52:30 | 41.33701 | -115.09796 | 234° | 11km/h | 30486m | -43.2m/s | -37.2°C | 0% | 0hPa | 0V | 00:00:00 | 00:00:00 | 00:00:00 | |
| KE7DJD | 2026-09-02 00:51:47 | 41.33929 | -115.09793 | 134° | 20km/h | 31944m | -24.6m/s | -34.9°C | 0% | 0hPa | 0V | 00:00:00 | 00:00:00 | 00:00:00 | |
| KE7DJD | 2026-09-02 00:51:25 | 41.34117 | -115.09779 | 160° | 73km/h | 32472m | 4.9m/s | 0°C | 0% | 0hPa | 0V | 00:00:00 | 00:00:00 | 00:00:00 | |
| KE7DJD | 2026-09-02 00:50:46 | 41.34462 | -115.09785 | 188° | 33km/h | 32254m | 7.1m/s | -34.4°C | 0% | 0hPa | 0V | 00:00:00 | 00:00:00 | 00:00:00 | |
| KE7DJD | 2026-09-02 00:50:25 | 41.34594 | -115.09769 | 217° | 22km/h | 32129m | 5.4m/s | -35.2°C | 0% | 0hPa | 0V | 00:00:00 | 00:00:00 | 00:00:00 | |
| KE7DJD | 2026-09-02 00:50:04 | 41.34708 | -115.09755 | 165° | 40km/h | 32015m | 5.5m/s | -35.2°C | 0% | 0hPa | 0V | 00:00:00 | 00:00:00 | 00:00:00 | |
| KE7DJD | 2026-09-02 00:49:44 | 41.34854 | -115.09675 | 224° | 31km/h | 31893m | 5.3m/s | -35.4°C | 0% | 0hPa | 0V | 00:00:00 | 00:00:00 | 00:00:00 | |
| KE7DJD | 2026-09-02 00:49:24 | 41.35015 | -115.09592 | 244° | 29km/h | 31777m | 4.5m/s | -35.5°C | 0% | 0hPa | 0V | 00:00:00 | 00:00:00 | 00:00:00 | |
| KE7DJD | 2026-09-02 00:49:03 | 41.35195 | -115.09582 | 173° | 26km/h | 31647m | 6.2m/s | -36.1°C | 0% | 0hPa | 0V | 00:00:00 | 00:00:00 | 00:00:00 | |
| KE7DJD | 2026-09-02 00:48:42 | 41.35330 | -115.09599 | 207° | 27km/h | 31523m | 5.8m/s | -36.5°C | 0% | 0hPa | 0V | 00:00:00 | 00:00:00 | 00:00:00 | |
| KE7DJD | 2026-09-02 00:48:22 | 41.35396 | -115.09612 | 119° | 26km/h | 31393m | 6.0m/s | -36.0°C | 0% | 0hPa | 0V | 00:00:00 | 00:00:00 | 00:00:00 | |
| KE7DJD | 2026-09-02 00:48:00 | 41.35447 | -115.09662 | 180° | 15km/h | 31262m | 6.1m/s | -36.8°C | 0% | 0hPa | 0V | 00:00:00 | 00:00:00 | 00:00:00 | |
| KE7DJD | 2026-09-02 00:47:40 | 41.35510 | -115.09678 | 201° | 16km/h | 31140m | 5.9m/s | -37.2°C | 0% | 0hPa | 0V | 00:00:00 | 00:00:00 | 00:00:00 | |
| KE7DJD | 2026-09-02 00:46:59 | 41.35572 | -115.09740 | 116° | 4km/h | 30885m | 6.0m/s | -36.8°C | 0% | 0hPa | 0V | 00:00:00 | 00:00:00 | 00:00:00 | |
| KE7DJD | 2026-09-02 00:46:38 | 41.35603 | -115.09798 | 147° | 16km/h | 30760m | 4.2m/s | -37.1°C | 0% | 0hPa | 0V | 00:00:00 | 00:00:00 | 00:00:00 | |
| KE7DJD | 2026-09-02 00:46:18 | 41.35593 | -115.09787 | 2° | 15km/h | 30638m | 3.8m/s | -37.1°C | 0% | 0hPa | 0V | 00:00:00 | 00:00:00 | 00:00:00 | |
| KE7DJD | 2026-09-02 00:45:58 | 41.35624 | -115.09734 | 331° | 2km/h | 30514m | 6.1m/s | -37.2°C | 0% | 0hPa | 0V | 00:00:00 | 00:00:00 | 00:00:00 | |
| KE7DJD | 2026-09-02 00:45:37 | 41.35634 | -115.09642 | 266° | 37km/h | 30397m | 4.3m/s | -37.1°C | 0% | 0hPa | 0V | 00:00:00 | 00:00:00 | 00:00:00 | |
| KE7DJD | 2026-09-02 00:45:16 | 41.35653 | -115.09546 | 228° | 33km/h | 30276m | 4.7m/s | -37.2°C | 0% | 0hPa | 0V | 00:00:00 | 00:00:00 | 00:00:00 | |
| KE7DJD | 2026-09-02 00:44:57 | 41.35651 | -115.09527 | 306° | 24km/h | 30163m | 7.1m/s | -37.6°C | 0% | 0hPa | 0V | 00:00:00 | 00:00:00 | 00:00:00 | |
| KE7DJD | 2026-09-02 00:44:36 | 41.35639 | -115.09485 | 141° | 24km/h | 30043m | 4.9m/s | -37.8°C | 0% | 0hPa | 0V | 00:00:00 | 00:00:00 | 00:00:00 | |
| KE7DJD | 2026-09-02 00:44:15 | 41.35586 | -115.09453 | 5° | 20km/h | 29927m | 6.5m/s | -37.3°C | 0% | 0hPa | 0V | 00:00:00 | 00:00:00 | 00:00:00 | |
| KE7DJD | 2026-09-02 00:43:55 | 41.35527 | -115.09451 | 325° | 15km/h | 29803m | 6.8m/s | -37.0°C | 0% | 0hPa | 0V | 00:00:00 | 00:00:00 | 00:00:00 | |
| KE7DJD | 2026-09-02 00:43:34 | 41.35485 | -115.09392 | 347° | 11km/h | 29681m | 5.7m/s | -37.3°C | 0% | 0hPa | 0V | 00:00:00 | 00:00:00 | 00:00:00 | |
| KE7DJD | 2026-09-02 00:43:14 | 41.35457 | -115.09322 | 326° | 9km/h | 29552m | 7.5m/s | -38.3°C | 0% | 0hPa | 0V | 00:00:00 | 00:00:00 | 00:00:00 | |
| KE7DJD | 2026-09-02 00:42:52 | 41.35486 | -115.09267 | 241° | 29km/h | 29423m | 3.8m/s | -38.2°C | 0% | 0hPa | 0V | 00:00:00 | 00:00:00 | 00:00:00 | |
| KE7DJD | 2026-09-02 00:42:31 | 41.35534 | -115.09184 | 238° | 18km/h | 29298m | 4.5m/s | -38.4°C | 0% | 0hPa | 0V | 00:00:00 | 00:00:00 | 00:00:00 | |
| KE7DJD | 2026-09-02 00:42:11 | 41.35622 | -115.09129 | 275° | 13km/h | 29169m | 6.2m/s | -38.2°C | 0% | 0hPa | 0V | 00:00:00 | 00:00:00 | 00:00:00 | |
| KE7DJD | 2026-09-02 00:41:08 | 41.35671 | -115.09124 | 67° | 22km/h | 28800m | 4.8m/s | -38.7°C | 0% | 0hPa | 0V | 00:00:00 | 00:00:00 | 00:00:00 | |
| KE7DJD | 2026-09-02 00:40:47 | 41.35637 | -115.09090 | 264° | 5km/h | 28677m | 5.4m/s | -38.9°C | 0% | 0hPa | 0V | 00:00:00 | 00:00:00 | 00:00:00 | |
| KE7DJD | 2026-09-02 00:40:27 | 41.35621 | -115.09068 | 167° | 7km/h | 28561m | 6.5m/s | -39.3°C | 0% | 0hPa | 0V | 00:00:00 | 00:00:00 | 00:00:00 | |
| KE7DJD | 2026-09-02 00:40:06 | 41.35612 | -115.09121 | 311° | 11km/h | 28438m | 5.5m/s | -39.4°C | 0% | 0hPa | 0V | 00:00:00 | 00:00:00 | 00:00:00 | |
| KE7DJD | 2026-09-02 00:39:46 | 41.35621 | -115.09125 | 235° | 16km/h | 28320m | 4.3m/s | -39.3°C | 0% | 0hPa | 0V | 00:00:00 | 00:00:00 | 00:00:00 | |
| KE7DJD | 2026-09-02 00:39:26 | 41.35619 | -115.09075 | 263° | 9km/h | 28194m | 6.5m/s | -39.7°C | 0% | 0hPa | 0V | 00:00:00 | 00:00:00 | 00:00:00 | |
| KE7DJD | 2026-09-02 00:39:05 | 41.35605 | -115.09029 | 257° | 5km/h | 28078m | 6.4m/s | -40.0°C | 0% | 0hPa | 0V | 00:00:00 | 00:00:00 | 00:00:00 | |
| KE7DJD | 2026-09-02 00:38:44 | 41.35567 | -115.08986 | 226° | 18km/h | 27957m | 5.8m/s | -40.0°C | 0% | 0hPa | 0V | 00:00:00 | 00:00:00 | 00:00:00 | |
| KE7DJD | 2026-09-02 00:38:24 | 41.35559 | -115.08932 | 309° | 24km/h | 27843m | 5.2m/s | -40.2°C | 0% | 0hPa | 0V | 00:00:00 | 00:00:00 | 00:00:00 | |
| KE7DJD | 2026-09-02 00:38:04 | 41.35570 | -115.08887 | 300° | 22km/h | 27724m | 5.2m/s | -40.1°C | 0% | 0hPa | 0V | 00:00:00 | 00:00:00 | 00:00:00 | |
| KE7DJD | 2026-09-02 00:37:43 | 41.35588 | -115.08788 | 257° | 7km/h | 27611m | 6.6m/s | -40.2°C | 0% | 0hPa | 0V | 00:00:00 | 00:00:00 | 00:00:00 | |
| KE7DJD | 2026-09-02 00:37:23 | 41.35608 | -115.08659 | 225° | 29km/h | 27493m | 4.3m/s | -40.3°C | 0% | 0hPa | 0V | 00:00:00 | 00:00:00 | 00:00:00 | |
| KE7DJD | 2026-09-02 00:37:02 | 41.35644 | -115.08529 | 231° | 22km/h | 27384m | 4.5m/s | -40.6°C | 0% | 0hPa | 0V | 00:00:00 | 00:00:00 | 00:00:00 | |
| KE7DJD | 2026-09-02 00:36:42 | 41.35685 | -115.08474 | 239° | 13km/h | 27270m | 5.3m/s | -40.9°C | 0% | 0hPa | 0V | 00:00:00 | 00:00:00 | 00:00:00 | |
| KE7DJD | 2026-09-02 00:36:21 | 41.35680 | -115.08462 | 312° | 11km/h | 27160m | 6.4m/s | -41.4°C | 0% | 0hPa | 0V | 00:00:00 | 00:00:00 | 00:00:00 | |
| KE7DJD | 2026-09-02 00:35:59 | 41.35684 | -115.08395 | 28° | 4km/h | 27044m | 4.4m/s | -41.6°C | 0% | 0hPa | 0V | 00:00:00 | 00:00:00 | 00:00:00 | |
| KE7DJD | 2026-09-02 00:35:39 | 41.35717 | -115.08289 | 295° | 20km/h | 26933m | 4.6m/s | -41.9°C | 0% | 0hPa | 0V | 00:00:00 | 00:00:00 | 00:00:00 | |
| KE7DJD | 2026-09-02 00:35:18 | 41.35722 | -115.08189 | 280° | 37km/h | 26818m | 3.4m/s | -42.1°C | 0% | 0hPa | 0V | 00:00:00 | 00:00:00 | 00:00:00 | |
| KE7DJD | 2026-09-02 00:34:57 | 41.35721 | -115.08084 | 258° | 4km/h | 26701m | 5.7m/s | -42.2°C | 0% | 0hPa | 0V | 00:00:00 | 00:00:00 | 00:00:00 | |
| KE7DJD | 2026-09-02 00:34:36 | 41.35736 | -115.08019 | 223° | 11km/h | 26586m | 4.4m/s | -42.5°C | 0% | 0hPa | 0V | 00:00:00 | 00:00:00 | 00:00:00 | |
| KE7DJD | 2026-09-02 00:34:15 | 41.35761 | -115.07947 | 259° | 4km/h | 26465m | 4.8m/s | -42.7°C | 0% | 0hPa | 0V | 00:00:00 | 00:00:00 | 00:00:00 | |
| KE7DJD | 2026-09-02 00:33:55 | 41.35738 | -115.07925 | 317° | 15km/h | 26349m | 5.8m/s | -42.7°C | 0% | 0hPa | 0V | 00:00:00 | 00:00:00 | 00:00:00 | |
| KE7DJD | 2026-09-02 00:33:34 | 41.35718 | -115.07874 | 298° | 11km/h | 26224m | 4.4m/s | -42.9°C | 0% | 0hPa | 0V | 00:00:00 | 00:00:00 | 00:00:00 | |
| KE7DJD | 2026-09-02 00:33:14 | 41.35704 | -115.07795 | 254° | 16km/h | 26109m | 3.1m/s | -43.1°C | 0% | 0hPa | 0V | 00:00:00 | 00:00:00 | 00:00:00 | |
| KE7DJD | 2026-09-02 00:32:54 | 41.35713 | -115.07719 | 293° | 18km/h | 25991m | 5.9m/s | -43.3°C | 0% | 0hPa | 0V | 00:00:00 | 00:00:00 | 00:00:00 | |
| KE7DJD | 2026-09-02 00:32:33 | 41.35683 | -115.07683 | 313° | 26km/h | 25881m | 8.0m/s | -43.8°C | 0% | 0hPa | 0V | 00:00:00 | 00:00:00 | 00:00:00 | |
| KE7DJD | 2026-09-02 00:32:13 | 41.35610 | -115.07588 | 320° | 24km/h | 25764m | 6.7m/s | -43.9°C | 0% | 0hPa | 0V | 00:00:00 | 00:00:00 | 00:00:00 | |
| KE7DJD | 2026-09-02 00:31:52 | 41.35553 | -115.07449 | 274° | 26km/h | 25654m | 7.4m/s | -44.1°C | 0% | 0hPa | 0V | 00:00:00 | 00:00:00 | 00:00:00 | |
| KE7DJD | 2026-09-02 00:31:32 | 41.35544 | -115.07322 | 252° | 18km/h | 25539m | 7.0m/s | -44.2°C | 0% | 0hPa | 0V | 00:00:00 | 00:00:00 | 00:00:00 | |
| KE7DJD | 2026-09-02 00:31:11 | 41.35588 | -115.07167 | 248° | 18km/h | 25427m | 4.2m/s | -43.9°C | 0% | 0hPa | 0V | 00:00:00 | 00:00:00 | 00:00:00 | |
| KE7DJD | 2026-09-02 00:30:51 | 41.35673 | -115.06999 | 240° | 22km/h | 25310m | 6.1m/s | -43.3°C | 0% | 0hPa | 0V | 00:00:00 | 00:00:00 | 00:00:00 | |
| KE7DJD | 2026-09-02 00:30:30 | 41.35767 | -115.06853 | 239° | 24km/h | 25199m | 6.1m/s | -42.9°C | 0% | 0hPa | 0V | 00:00:00 | 00:00:00 | 00:00:00 | |
| KE7DJD | 2026-09-02 00:30:10 | 41.35845 | -115.06714 | 238° | 26km/h | 25085m | 5.8m/s | -42.8°C | 0% | 0hPa | 0V | 00:00:00 | 00:00:00 | 00:00:00 | |
| KE7DJD | 2026-09-02 00:29:48 | 41.35924 | -115.06592 | 245° | 16km/h | 24971m | 6.8m/s | -43.4°C | 0% | 0hPa | 0V | 00:00:00 | 00:00:00 | 00:00:00 | |
| KE7DJD | 2026-09-02 00:29:28 | 41.36003 | -115.06551 | 245° | 15km/h | 24858m | 4.6m/s | -43.3°C | 0% | 0hPa | 0V | 00:00:00 | 00:00:00 | 00:00:00 | |
| KE7DJD | 2026-09-02 00:29:07 | 41.36053 | -115.06495 | 296° | 7km/h | 24743m | 4.8m/s | -43.4°C | 0% | 0hPa | 0V | 00:00:00 | 00:00:00 | 00:00:00 | |
| KE7DJD | 2026-09-02 00:28:47 | 41.36054 | -115.06380 | 264° | 16km/h | 24637m | 6.3m/s | -43.5°C | 0% | 0hPa | 0V | 00:00:00 | 00:00:00 | 00:00:00 | |
| KE7DJD | 2026-09-02 00:28:27 | 41.36070 | -115.06238 | 248° | 18km/h | 24525m | 5.2m/s | -43.2°C | 0% | 0hPa | 0V | 00:00:00 | 00:00:00 | 00:00:00 | |
| KE7DJD | 2026-09-02 00:28:06 | 41.36153 | -115.06130 | 202° | 38km/h | 24413m | 4.6m/s | -43.9°C | 0% | 0hPa | 0V | 00:00:00 | 00:00:00 | 00:00:00 | |
| KE7DJD | 2026-09-02 00:27:46 | 41.36275 | -115.06035 | 193° | 24km/h | 24299m | 4.6m/s | -45.1°C | 0% | 0hPa | 0V | 00:00:00 | 00:00:00 | 00:00:00 | |
| KE7DJD | 2026-09-02 00:27:25 | 41.36370 | -115.06029 | 188° | 15km/h | 24187m | 6.5m/s | -45.3°C | 0% | 0hPa | 0V | 00:00:00 | 00:00:00 | 00:00:00 | |
| KE7DJD | 2026-09-02 00:27:04 | 41.36413 | -115.05984 | 220° | 13km/h | 24066m | 6.3m/s | -45.5°C | 0% | 0hPa | 0V | 00:00:00 | 00:00:00 | 00:00:00 | |
| KE7DJD | 2026-09-02 00:26:44 | 41.36437 | -115.05927 | 242° | 22km/h | 23951m | 6.4m/s | -45.8°C | 0% | 0hPa | 0V | 00:00:00 | 00:00:00 | 00:00:00 | |
| KE7DJD | 2026-09-02 00:26:24 | 41.36498 | -115.05853 | 212° | 15km/h | 23835m | 3.7m/s | -46.1°C | 0% | 0hPa | 0V | 00:00:00 | 00:00:00 | 00:00:00 | |
| KE7DJD | 2026-09-02 00:26:03 | 41.36547 | -115.05845 | 228° | 7km/h | 23726m | 3.4m/s | -45.9°C | 0% | 0hPa | 0V | 00:00:00 | 00:00:00 | 00:00:00 | |
| KE7DJD | 2026-09-02 00:25:43 | 41.36555 | -115.05845 | 62° | 15km/h | 23609m | 3.7m/s | -46.1°C | 0% | 0hPa | 0V | 00:00:00 | 00:00:00 | 00:00:00 | |
| KE7DJD | 2026-09-02 00:25:22 | 41.36519 | -115.05824 | 213° | 4km/h | 23492m | 5.9m/s | -46.0°C | 0% | 0hPa | 0V | 00:00:00 | 00:00:00 | 00:00:00 | |
| KE7DJD | 2026-09-02 00:24:41 | 41.36465 | -115.05789 | 2° | 24km/h | 23277m | 4.9m/s | -47.9°C | 0% | 0hPa | 0V | 00:00:00 | 00:00:00 | 00:00:00 | |
| KE7DJD | 2026-09-02 00:24:21 | 41.36408 | -115.05725 | 332° | 20km/h | 23166m | 4.9m/s | -47.6°C | 0% | 0hPa | 0V | 00:00:00 | 00:00:00 | 00:00:00 | |
| KE7DJD | 2026-09-02 00:23:59 | 41.36359 | -115.05666 | 318° | 16km/h | 23055m | 4.0m/s | -47.2°C | 0% | 0hPa | 0V | 00:00:00 | 00:00:00 | 00:00:00 | |
| KE7DJD | 2026-09-02 00:23:39 | 41.36324 | -115.05573 | 308° | 18km/h | 22947m | 6.4m/s | -47.9°C | 0% | 0hPa | 0V | 00:00:00 | 00:00:00 | 00:00:00 | |
| KE7DJD | 2026-09-02 00:23:19 | 41.36259 | -115.05500 | 333° | 7km/h | 22845m | 5.7m/s | -48.6°C | 0% | 0hPa | 0V | 00:00:00 | 00:00:00 | 00:00:00 | |
| KE7DJD | 2026-09-02 00:22:58 | 41.36240 | -115.05431 | 232° | 18km/h | 22743m | 6.2m/s | -48.1°C | 0% | 0hPa | 0V | 00:00:00 | 00:00:00 | 00:00:00 | |
| KE7DJD | 2026-09-02 00:22:37 | 41.36288 | -115.05394 | 183° | 29km/h | 22631m | 3.8m/s | -48.3°C | 0% | 0hPa | 0V | 00:00:00 | 00:00:00 | 00:00:00 | |
| KE7DJD | 2026-09-02 00:22:17 | 41.36348 | -115.05392 | 213° | 13km/h | 22524m | 3.5m/s | -48.2°C | 0% | 0hPa | 0V | 00:00:00 | 00:00:00 | 00:00:00 | |
| KE7DJD | 2026-09-02 00:21:57 | 41.36390 | -115.05373 | 3° | 7km/h | 22413m | 4.4m/s | -48.1°C | 0% | 0hPa | 0V | 00:00:00 | 00:00:00 | 00:00:00 | |
| KE7DJD | 2026-09-02 00:21:36 | 41.36394 | -115.05316 | 342° | 13km/h | 22307m | 4.5m/s | -47.9°C | 0% | 0hPa | 0V | 00:00:00 | 00:00:00 | 00:00:00 | |
| KE7DJD | 2026-09-02 00:21:15 | 41.36380 | -115.05266 | 319° | 7km/h | 22200m | 6.0m/s | -47.6°C | 0% | 0hPa | 0V | 00:00:00 | 00:00:00 | 00:00:00 | |
| KE7DJD | 2026-09-02 00:20:55 | 41.36402 | -115.05284 | 190° | 4km/h | 22096m | 3.6m/s | -47.7°C | 0% | 0hPa | 0V | 00:00:00 | 00:00:00 | 00:00:00 | |
| KE7DJD | 2026-09-02 00:20:33 | 41.36444 | -115.05330 | 84° | 15km/h | 21996m | 6.5m/s | -47.7°C | 0% | 0hPa | 0V | 00:00:00 | 00:00:00 | 00:00:00 | |
| KE7DJD | 2026-09-02 00:20:13 | 41.36466 | -115.05431 | 102° | 31km/h | 21892m | 4.4m/s | -48.1°C | 0% | 0hPa | 0V | 00:00:00 | 00:00:00 | 00:00:00 | |
| KE7DJD | 2026-09-02 00:19:52 | 41.36474 | -115.05550 | 123° | 22km/h | 21784m | 4.6m/s | -47.8°C | 0% | 0hPa | 0V | 00:00:00 | 00:00:00 | 00:00:00 | |
| KE7DJD | 2026-09-02 00:19:31 | 41.36514 | -115.05685 | 84° | 31km/h | 21683m | 4.4m/s | -48.6°C | 0% | 0hPa | 0V | 00:00:00 | 00:00:00 | 00:00:00 | |
| KE7DJD | 2026-09-02 00:19:11 | 41.36479 | -115.05880 | 85° | 35km/h | 21574m | 5.6m/s | -49.8°C | 0% | 0hPa | 0V | 00:00:00 | 00:00:00 | 00:00:00 | |
| KE7DJD | 2026-09-02 00:18:50 | 41.36403 | -115.06031 | 53° | 26km/h | 21468m | 6.9m/s | -50.1°C | 0% | 0hPa | 0V | 00:00:00 | 00:00:00 | 00:00:00 | |
| KE7DJD | 2026-09-02 00:18:30 | 41.36319 | -115.06134 | 20° | 16km/h | 21352m | 3.9m/s | -49.7°C | 0% | 0hPa | 0V | 00:00:00 | 00:00:00 | 00:00:00 | |
| KE7DJD | 2026-09-02 00:18:10 | 41.36236 | -115.06171 | 37° | 16km/h | 21249m | 4.7m/s | -49.3°C | 0% | 0hPa | 0V | 00:00:00 | 00:00:00 | 00:00:00 | |
| KE7DJD | 2026-09-02 00:17:49 | 41.36176 | -115.06184 | 306° | 13km/h | 21139m | 4.0m/s | -49.0°C | 0% | 0hPa | 0V | 00:00:00 | 00:00:00 | 00:00:00 | |
| KE7DJD | 2026-09-02 00:17:27 | 41.36137 | -115.06142 | 4° | 7km/h | 21030m | 4.0m/s | -48.8°C | 0% | 0hPa | 0V | 00:00:00 | 00:00:00 | 00:00:00 | |
| KE7DJD | 2026-09-02 00:17:06 | 41.36094 | -115.06129 | 51° | 11km/h | 20923m | 6.0m/s | -48.7°C | 0% | 0hPa | 0V | 00:00:00 | 00:00:00 | 00:00:00 | |
| KE7DJD | 2026-09-02 00:16:46 | 41.36056 | -115.06168 | 99° | 24km/h | 20815m | 5.2m/s | -49.0°C | 0% | 0hPa | 0V | 00:00:00 | 00:00:00 | 00:00:00 | |
| KE7DJD | 2026-09-02 00:16:25 | 41.36055 | -115.06263 | 83° | 26km/h | 20709m | 4.9m/s | -50.0°C | 0% | 0hPa | 0V | 00:00:00 | 00:00:00 | 00:00:00 | |
| KE7DJD | 2026-09-02 00:16:04 | 41.36074 | -115.06403 | 113° | 27km/h | 20601m | 4.5m/s | -49.6°C | 0% | 0hPa | 0V | 00:00:00 | 00:00:00 | 00:00:00 | |
| KE7DJD | 2026-09-02 00:15:43 | 41.36084 | -115.06590 | 87° | 31km/h | 20496m | 6.5m/s | -49.4°C | 0% | 0hPa | 0V | 00:00:00 | 00:00:00 | 00:00:00 | |
| KE7DJD | 2026-09-02 00:15:22 | 41.36054 | -115.06840 | 64° | 31km/h | 20380m | 6.5m/s | -49.8°C | 0% | 0hPa | 0V | 00:00:00 | 00:00:00 | 00:00:00 | |
| KE7DJD | 2026-09-02 00:15:02 | 41.35925 | -115.07058 | 40° | 40km/h | 20262m | 5.3m/s | -49.4°C | 0% | 0hPa | 0V | 00:00:00 | 00:00:00 | 00:00:00 | |
| KE7DJD | 2026-09-02 00:14:42 | 41.35760 | -115.07226 | 35° | 38km/h | 20153m | 6.0m/s | -48.7°C | 0% | 0hPa | 0V | 00:00:00 | 00:00:00 | 00:00:00 | |
| KE7DJD | 2026-09-02 00:14:21 | 41.35567 | -115.07371 | 19° | 35km/h | 20050m | 3.7m/s | -48.3°C | 0% | 0hPa | 0V | 00:00:00 | 00:00:00 | 00:00:00 | |
| KE7DJD | 2026-09-02 00:14:01 | 41.35369 | -115.07464 | 19° | 33km/h | 19950m | 4.8m/s | -48.0°C | 0% | 0hPa | 0V | 00:00:00 | 00:00:00 | 00:00:00 | |
| KE7DJD | 2026-09-02 00:13:40 | 41.35206 | -115.07469 | 355° | 33km/h | 19858m | 2.7m/s | -48.0°C | 0% | 0hPa | 0V | 00:00:00 | 00:00:00 | 00:00:00 | |
| KE7DJD | 2026-09-02 00:13:20 | 41.35081 | -115.07462 | 342° | 24km/h | 19764m | 3.6m/s | -48.2°C | 0% | 0hPa | 0V | 00:00:00 | 00:00:00 | 00:00:00 | |
| KE7DJD | 2026-09-02 00:12:59 | 41.35007 | -115.07481 | 28° | 11km/h | 19671m | 5.4m/s | -48.3°C | 0% | 0hPa | 0V | 00:00:00 | 00:00:00 | 00:00:00 | |
| KE7DJD | 2026-09-02 00:12:39 | 41.34950 | -115.07542 | 23° | 15km/h | 19570m | 5.0m/s | -48.3°C | 0% | 0hPa | 0V | 00:00:00 | 00:00:00 | 00:00:00 | |
| KE7DJD | 2026-09-02 00:12:17 | 41.34914 | -115.07625 | 101° | 4km/h | 19465m | 4.3m/s | -48.0°C | 0% | 0hPa | 0V | 00:00:00 | 00:00:00 | 00:00:00 | |
| KE7DJD | 2026-09-02 00:11:56 | 41.34881 | -115.07742 | 81° | 18km/h | 19351m | 5.5m/s | -48.1°C | 0% | 0hPa | 0V | 00:00:00 | 00:00:00 | 00:00:00 | |
| KE7DJD | 2026-09-02 00:11:36 | 41.34797 | -115.07895 | 45° | 27km/h | 19236m | 4.6m/s | -47.5°C | 0% | 0hPa | 0V | 00:00:00 | 00:00:00 | 00:00:00 | |
| KE7DJD | 2026-09-02 00:11:15 | 41.34718 | -115.08050 | 75° | 29km/h | 19127m | 4.5m/s | -47.1°C | 0% | 0hPa | 0V | 00:00:00 | 00:00:00 | 00:00:00 | |
| KE7DJD | 2026-09-02 00:10:34 | 41.34566 | -115.08371 | 51° | 31km/h | 18922m | 6.1m/s | -49.3°C | 0% | 0hPa | 0V | 00:00:00 | 00:00:00 | 00:00:00 | |
| KE7DJD | 2026-09-02 00:10:12 | 41.34436 | -115.08529 | 48° | 38km/h | 18822m | 5.1m/s | -50.8°C | 0% | 0hPa | 0V | 00:00:00 | 00:00:00 | 00:00:00 | |
| KE7DJD | 2026-09-02 00:09:52 | 41.34282 | -115.08660 | 30° | 35km/h | 18726m | 5.5m/s | -51.2°C | 0% | 0hPa | 0V | 00:00:00 | 00:00:00 | 00:00:00 | |
| KE7DJD | 2026-09-02 00:09:31 | 41.34160 | -115.08819 | 50° | 29km/h | 18632m | 4.8m/s | -52.5°C | 0% | 0hPa | 0V | 00:00:00 | 00:00:00 | 00:00:00 | |
| KE7DJD | 2026-09-02 00:09:11 | 41.34011 | -115.08994 | 42° | 42km/h | 18535m | 5.9m/s | -55.2°C | 0% | 0hPa | 0V | 00:00:00 | 00:00:00 | 00:00:00 | |
| KE7DJD | 2026-09-02 00:08:50 | 41.33868 | -115.09179 | 46° | 42km/h | 18431m | 5.4m/s | -54.8°C | 0% | 0hPa | 0V | 00:00:00 | 00:00:00 | 00:00:00 | |
| KE7DJD | 2026-09-02 00:08:31 | 41.33738 | -115.09340 | 31° | 33km/h | 18329m | 4.6m/s | -53.9°C | 0% | 0hPa | 0V | 00:00:00 | 00:00:00 | 00:00:00 | |
| KE7DJD | 2026-09-02 00:08:10 | 41.33612 | -115.09505 | 53° | 40km/h | 18228m | 3.9m/s | -52.9°C | 0% | 0hPa | 0V | 00:00:00 | 00:00:00 | 00:00:00 | |
| KE7DJD | 2026-09-02 00:07:49 | 41.33481 | -115.09656 | 45° | 31km/h | 18126m | 6.0m/s | -52.5°C | 0% | 0hPa | 0V | 00:00:00 | 00:00:00 | 00:00:00 | |
| KE7DJD | 2026-09-02 00:07:29 | 41.33313 | -115.09789 | 29° | 47km/h | 18023m | 5.6m/s | -51.5°C | 0% | 0hPa | 0V | 00:00:00 | 00:00:00 | 00:00:00 | |
| KE7DJD | 2026-09-02 00:07:09 | 41.33119 | -115.09948 | 44° | 42km/h | 17908m | 4.8m/s | -50.5°C | 0% | 0hPa | 0V | 00:00:00 | 00:00:00 | 00:00:00 | |
| KE7DJD | 2026-09-02 00:06:48 | 41.32938 | -115.10125 | 42° | 47km/h | 17795m | 6.8m/s | -50.1°C | 0% | 0hPa | 0V | 00:00:00 | 00:00:00 | 00:00:00 | |
| KE7DJD | 2026-09-02 00:06:27 | 41.32737 | -115.10325 | 35° | 57km/h | 17683m | 5.1m/s | -49.8°C | 0% | 0hPa | 0V | 00:00:00 | 00:00:00 | 00:00:00 | |
| KE7DJD | 2026-09-02 00:06:07 | 41.32497 | -115.10529 | 24° | 55km/h | 17581m | 4.7m/s | -49.3°C | 0% | 0hPa | 0V | 00:00:00 | 00:00:00 | 00:00:00 | |
| KE7DJD | 2026-09-02 00:05:47 | 41.32234 | -115.10733 | 37° | 66km/h | 17492m | 2.7m/s | -49.4°C | 0% | 0hPa | 0V | 00:00:00 | 00:00:00 | 00:00:00 | |
| KE7DJD | 2026-09-02 00:05:26 | 41.31945 | -115.10967 | 37° | 71km/h | 17407m | 2.8m/s | -49.7°C | 0% | 0hPa | 0V | 00:00:00 | 00:00:00 | 00:00:00 | |
| KE7DJD | 2026-09-02 00:05:06 | 41.31621 | -115.11228 | 34° | 75km/h | 17331m | 4.6m/s | -49.6°C | 0% | 0hPa | 0V | 00:00:00 | 00:00:00 | 00:00:00 | |
| KE7DJD | 2026-09-02 00:04:44 | 41.31271 | -115.11504 | 26° | 66km/h | 17253m | 5.5m/s | -50.5°C | 0% | 0hPa | 0V | 00:00:00 | 00:00:00 | 00:00:00 | |
| KE7DJD | 2026-09-02 00:04:23 | 41.30955 | -115.11721 | 26° | 66km/h | 17167m | 4.5m/s | -51.3°C | 0% | 0hPa | 0V | 00:00:00 | 00:00:00 | 00:00:00 | |
| KE7DJD | 2026-09-02 00:03:47 | 41.30397 | -115.12183 | 33° | 77km/h | 16975m | 6.0m/s | -53.2°C | 0% | 0hPa | 0V | 00:00:00 | 00:00:00 | 00:00:00 | |
| KE7DJD | 2026-09-02 00:03:25 | 41.30085 | -115.12394 | 26° | 69km/h | 16866m | 5.5m/s | -52.8°C | 0% | 0hPa | 0V | 00:00:00 | 00:00:00 | 00:00:00 | |
| KE7DJD | 2026-09-02 00:03:14 | 41.29808 | -115.12579 | 27° | 60km/h | 16755m | 5.8m/s | -51.8°C | 0% | 0hPa | 0V | 00:00:00 | 00:00:00 | 00:00:00 | |
| KE7DJD | 2026-09-02 00:02:47 | 41.29530 | -115.12751 | 26° | 57km/h | 16647m | 6.0m/s | -50.8°C | 0% | 0hPa | 0V | 00:00:00 | 00:00:00 | 00:00:00 | |
| KE7DJD | 2026-09-02 00:02:28 | 41.29258 | -115.12900 | 22° | 55km/h | 16547m | 4.9m/s | -49.8°C | 0% | 0hPa | 0V | 00:00:00 | 00:00:00 | 00:00:00 | |
| KE7DJD | 2026-09-02 00:02:06 | 41.28991 | -115.13074 | 23° | 58km/h | 16428m | 6.8m/s | -48.8°C | 0% | 0hPa | 0V | 00:00:00 | 00:00:00 | 00:00:00 | |
| KE7DJD | 2026-09-02 00:01:46 | 41.28753 | -115.13264 | 38° | 47km/h | 16310m | 6.2m/s | -48.7°C | 0% | 0hPa | 0V | 00:00:00 | 00:00:00 | 00:00:00 | |
| KE7DJD | 2026-09-02 00:01:22 | 41.28521 | -115.13491 | 40° | 66km/h | 16206m | 4.6m/s | -48.2°C | 0% | 0hPa | 0V | 00:00:00 | 00:00:00 | 00:00:00 | |
| KE7DJD | 2026-09-02 00:00:58 | 41.28272 | -115.13770 | 49° | 58km/h | 16101m | 5.3m/s | -47.6°C | 0% | 0hPa | 0V | 00:00:00 | 00:00:00 | 00:00:00 | |
| KE7DJD | 2026-09-02 00:00:37 | 41.28036 | -115.14091 | 44° | 66km/h | 15999m | 4.0m/s | -48.5°C | 0% | 0hPa | 0V | 00:00:00 | 00:00:00 | 00:00:00 | |
| KE7DJD | 2026-09-02 00:00:21 | 41.27785 | -115.14464 | 49° | 86km/h | 15904m | 5.4m/s | -48.8°C | 0% | 0hPa | 0V | 00:00:00 | 00:00:00 | 00:00:00 | |
| KE7DJD | 2026-09-01 23:59:55 | 41.27520 | -115.14932 | 55° | 95km/h | 15819m | 3.1m/s | -49.6°C | 0% | 0hPa | 0V | 00:00:00 | 00:00:00 | 00:00:00 | |
| KE7DJD | 2026-09-01 23:59:35 | 41.27203 | -115.15483 | 53° | 99km/h | 15741m | 2.0m/s | -49.5°C | 0% | 0hPa | 0V | 00:00:00 | 00:00:00 | 00:00:00 | |
| KE7DJD | 2026-09-01 23:59:14 | 41.26860 | -115.16027 | 53° | 106km/h | 15676m | 2.5m/s | -50.0°C | 0% | 0hPa | 0V | 00:00:00 | 00:00:00 | 00:00:00 | |
| KE7DJD | 2026-09-01 23:58:54 | 41.26498 | -115.16634 | 53° | 111km/h | 15611m | 3.7m/s | -50.1°C | 0% | 0hPa | 0V | 00:00:00 | 00:00:00 | 00:00:00 | |
| KE7DJD | 2026-09-01 23:58:34 | 41.26153 | -115.17197 | 50° | 115km/h | 15550m | 1.3m/s | -50.6°C | 0% | 0hPa | 0V | 00:00:00 | 00:00:00 | 00:00:00 | |
| KE7DJD | 2026-09-01 23:58:13 | 41.25773 | -115.17753 | 46° | 104km/h | 15485m | 2.2m/s | -50.1°C | 0% | 0hPa | 0V | 00:00:00 | 00:00:00 | 00:00:00 | |
| KE7DJD | 2026-09-01 23:57:51 | 41.25378 | -115.18266 | 47° | 99km/h | 15415m | 2.7m/s | -49.9°C | 0% | 0hPa | 0V | 00:00:00 | 00:00:00 | 00:00:00 | |
| KE7DJD | 2026-09-01 23:57:30 | 41.24983 | -115.18717 | 44° | 84km/h | 15334m | 3.7m/s | -50.5°C | 0% | 0hPa | 0V | 00:00:00 | 00:00:00 | 00:00:00 | |
| KE7DJD | 2026-09-01 23:57:10 | 41.24603 | -115.19138 | 39° | 91km/h | 15252m | 2.9m/s | -50.1°C | 0% | 0hPa | 0V | 00:00:00 | 00:00:00 | 00:00:00 | |
| KE7DJD | 2026-09-01 23:56:49 | 41.24238 | -115.19598 | 45° | 97km/h | 15163m | 3.0m/s | -50.0°C | 0% | 0hPa | 0V | 00:00:00 | 00:00:00 | 00:00:00 | |
| KE7DJD | 2026-09-01 23:56:27 | 41.23861 | -115.20107 | 46° | 106km/h | 15070m | 5.5m/s | -50.1°C | 0% | 0hPa | 0V | 00:00:00 | 00:00:00 | 00:00:00 | |
| KE7DJD | 2026-09-01 23:56:07 | 41.23467 | -115.20589 | 44° | 108km/h | 14975m | 3.6m/s | -49.5°C | 0% | 0hPa | 0V | 00:00:00 | 00:00:00 | 00:00:00 | |
| KE7DJD | 2026-09-01 23:55:47 | 41.23042 | -115.21064 | 41° | 99km/h | 14875m | 5.1m/s | -48.9°C | 0% | 0hPa | 0V | 00:00:00 | 00:00:00 | 00:00:00 | |
| KE7DJD | 2026-09-01 23:55:26 | 41.22639 | -115.21497 | 39° | 97km/h | 14772m | 4.4m/s | -48.2°C | 0% | 0hPa | 0V | 00:00:00 | 00:00:00 | 00:00:00 | |
| KE7DJD | 2026-09-01 23:55:06 | 41.22286 | -115.21879 | 45° | 82km/h | 14676m | 4.8m/s | -47.8°C | 0% | 0hPa | 0V | 00:00:00 | 00:00:00 | 00:00:00 | |
| KE7DJD | 2026-09-01 23:54:45 | 41.21951 | -115.22288 | 48° | 99km/h | 14579m | 4.0m/s | -47.6°C | 0% | 0hPa | 0V | 00:00:00 | 00:00:00 | 00:00:00 | |
| KE7DJD | 2026-09-01 23:54:04 | 41.21291 | -115.23146 | 50° | 89km/h | 14387m | 3.2m/s | -47.2°C | 0% | 0hPa | 0V | 00:00:00 | 00:00:00 | 00:00:00 | |
| KE7DJD | 2026-09-01 23:53:44 | 41.20956 | -115.23612 | 47° | 93km/h | 14297m | 3.8m/s | -47.3°C | 0% | 0hPa | 0V | 00:00:00 | 00:00:00 | 00:00:00 | |
| KE7DJD | 2026-09-01 23:53:23 | 41.20640 | -115.24109 | 51° | 93km/h | 14218m | 4.6m/s | -46.8°C | 0% | 0hPa | 0V | 00:00:00 | 00:00:00 | 00:00:00 | |
| KE7DJD | 2026-09-01 23:53:03 | 41.20338 | -115.24651 | 57° | 95km/h | 14140m | 3.2m/s | -46.6°C | 0% | 0hPa | 0V | 00:00:00 | 00:00:00 | 00:00:00 | |
| KE7DJD | 2026-09-01 23:52:42 | 41.20020 | -115.25245 | 54° | 106km/h | 14068m | 2.5m/s | -46.9°C | 0% | 0hPa | 0V | 00:00:00 | 00:00:00 | 00:00:00 | |
| KE7DJD | 2026-09-01 23:52:20 | 41.19651 | -115.25858 | 53° | 108km/h | 13997m | 3.2m/s | -46.8°C | 0% | 0hPa | 0V | 00:00:00 | 00:00:00 | 00:00:00 | |
| KE7DJD | 2026-09-01 23:52:00 | 41.19273 | -115.26456 | 55° | 110km/h | 13926m | 2.3m/s | -46.5°C | 0% | 0hPa | 0V | 00:00:00 | 00:00:00 | 00:00:00 | |
| KE7DJD | 2026-09-01 23:51:39 | 41.18909 | -115.27055 | 49° | 113km/h | 13858m | 3.3m/s | -46.7°C | 0% | 0hPa | 0V | 00:00:00 | 00:00:00 | 00:00:00 | |
| KE7DJD | 2026-09-01 23:51:18 | 41.18526 | -115.27618 | 48° | 115km/h | 13788m | 4.3m/s | -46.7°C | 0% | 0hPa | 0V | 00:00:00 | 00:00:00 | 00:00:00 | |
| KE7DJD | 2026-09-01 23:50:58 | 41.18092 | -115.28187 | 44° | 113km/h | 13708m | 3.5m/s | -46.4°C | 0% | 0hPa | 0V | 00:00:00 | 00:00:00 | 00:00:00 | |
| KE7DJD | 2026-09-01 23:50:37 | 41.17703 | -115.28692 | 45° | 106km/h | 13628m | 3.3m/s | -46.3°C | 0% | 0hPa | 0V | 00:00:00 | 00:00:00 | 00:00:00 | |
| KE7DJD | 2026-09-01 23:50:17 | 41.17303 | -115.29225 | 47° | 106km/h | 13542m | 4.9m/s | -46.5°C | 0% | 0hPa | 0V | 00:00:00 | 00:00:00 | 00:00:00 | |
| KE7DJD | 2026-09-01 23:49:56 | 41.16913 | -115.29730 | 42° | 110km/h | 13455m | 3.2m/s | -46.5°C | 0% | 0hPa | 0V | 00:00:00 | 00:00:00 | 00:00:00 | |
| KE7DJD | 2026-09-01 23:49:36 | 41.16514 | -115.30322 | 50° | 119km/h | 13356m | 5.5m/s | -47.4°C | 0% | 0hPa | 0V | 00:00:00 | 00:00:00 | 00:00:00 | |
| KE7DJD | 2026-09-01 23:49:15 | 41.16120 | -115.30952 | 51° | 117km/h | 13255m | 5.6m/s | -47.3°C | 0% | 0hPa | 0V | 00:00:00 | 00:00:00 | 00:00:00 | |
| KE7DJD | 2026-09-01 23:48:54 | 41.15740 | -115.31569 | 51° | 122km/h | 13152m | 5.0m/s | -46.9°C | 0% | 0hPa | 0V | 00:00:00 | 00:00:00 | 00:00:00 | |
| KE7DJD | 2026-09-01 23:48:34 | 41.15357 | -115.32243 | 53° | 120km/h | 13045m | 5.8m/s | -46.7°C | 0% | 0hPa | 0V | 00:00:00 | 00:00:00 | 00:00:00 | |
| KE7DJD | 2026-09-01 23:48:13 | 41.14975 | -115.32861 | 48° | 117km/h | 12947m | 6.0m/s | -47.2°C | 0% | 0hPa | 0V | 00:00:00 | 00:00:00 | 00:00:00 |